Terminal Aerodrome Forecast
Issued by NWS

Home | Current Version | Previous Version | Text Only | Print | Product List | Glossary On
Versions: 1 2 3 4 5 6 7 8 9 10 11 12 13 14 15 16 17 18
000
FTAK31 PAFA 241128
TAFASC
TAF
PASC 241128Z 2412/2512 10012KT 2SM BR OVC003
     FM241800 12012KT 4SM BR BKN003 OVC007
     FM242100 15010KT P6SM BKN007 BKN015 OVC025
     FM250000 18010KT P6SM VCSH BKN005 OVC015=

USA.gov is the U.S. government's official web portal to all federal, state and local government web resources and services.